Terminal Aerodrome Forecast
Issued by NWS Sterling, VA

Current Version | Previous Version | Graphics & Text | Print | Product List | Glossary On
Versions: 1 2 3 4 5 6 7 8 9 10 11 12 13 14 15 16 17 18 19 20 21 22 23
000
FTUS41 KLWX 210500
TAFIAD
TAF
KIAD 210537Z 2106/2212 VRB03KT P6SM FEW100 SCT200
     FM210700 00000KT 6SM BR FEW008 SCT150
     FM211000 00000KT 4SM BR FEW008 SCT030
      TEMPO 2110/2112 00000KT 3SM BR BKN003
     FM211200 00000KT P6SM FEW008 SCT015
     FM211700 VRB03KT P6SM SCT030 BKN110
     FM212100 25004KT P6SM VCTS SCT030 BKN060CB
     FM220100 VRB04KT P6SM BKN050 BKN100=

USA.gov is the U.S. government's official web portal to all federal, state and local government web resources and services.